sensor_id;sensor_type;location;lat;lon;timestamp;pressure;altitude;pressure_sealevel;temperature;humidity
71109;BME280;59614;51.012;-1.648;2023-06-10T00:00:13;100331.44;;;18.89;76.03
71109;BME280;59614;51.012;-1.648;2023-06-10T00:02:41;100335.38;;;18.99;75.57
71109;BME280;59614;51.012;-1.648;2023-06-10T00:05:07;100325.50;;;18.83;76.47
71109;BME280;59614;51.012;-1.648;2023-06-10T00:07:33;100326.03;;;18.73;76.81
71109;BME280;59614;51.012;-1.648;2023-06-10T00:10:04;100323.75;;;18.65;77.00
71109;BME280;59614;51.012;-1.648;2023-06-10T00:12:30;100326.84;;;18.75;76.85
71109;BME280;59614;51.012;-1.648;2023-06-10T00:14:56;100336.69;;;18.39;78.24
71109;BME280;59614;51.012;-1.648;2023-06-10T00:17:21;100330.28;;;18.77;76.83
71109;BME280;59614;51.012;-1.648;2023-06-10T00:19:48;100327.41;;;18.46;78.09
71109;BME280;59614;51.012;-1.648;2023-06-10T00:22:15;100321.00;;;18.49;78.29
71109;BME280;59614;51.012;-1.648;2023-06-10T00:24:41;100323.53;;;18.52;77.64
71109;BME280;59614;51.012;-1.648;2023-06-10T00:27:07;100320.22;;;18.47;78.14
71109;BME280;59614;51.012;-1.648;2023-06-10T00:29:32;100312.53;;;18.41;78.42
71109;BME280;59614;51.012;-1.648;2023-06-10T00:31:58;100314.25;;;18.24;79.25
71109;BME280;59614;51.012;-1.648;2023-06-10T00:34:24;100310.00;;;18.20;79.37
71109;BME280;59614;51.012;-1.648;2023-06-10T00:36:50;100315.28;;;18.39;78.53
71109;BME280;59614;51.012;-1.648;2023-06-10T00:39:15;100309.25;;;17.99;79.90
71109;BME280;59614;51.012;-1.648;2023-06-10T00:41:42;100310.47;;;18.11;79.91
71109;BME280;59614;51.012;-1.648;2023-06-10T00:44:07;100303.88;;;18.18;79.65
71109;BME280;59614;51.012;-1.648;2023-06-10T00:46:33;100306.38;;;18.03;79.67
71109;BME280;59614;51.012;-1.648;2023-06-10T00:49:00;100305.13;;;18.11;79.82
71109;BME280;59614;51.012;-1.648;2023-06-10T00:51:26;100303.22;;;18.13;79.44
71109;BME280;59614;51.012;-1.648;2023-06-10T00:53:52;100293.09;;;18.19;78.92
71109;BME280;59614;51.012;-1.648;2023-06-10T00:56:18;100300.16;;;18.03;79.50
71109;BME280;59614;51.012;-1.648;2023-06-10T00:58:43;100295.72;;;17.84;80.14
71109;BME280;59614;51.012;-1.648;2023-06-10T01:01:09;100305.50;;;18.03;79.78
71109;BME280;59614;51.012;-1.648;2023-06-10T01:03:37;100295.84;;;18.00;79.90
71109;BME280;59614;51.012;-1.648;2023-06-10T01:09:02;100300.09;;;18.04;80.00
71109;BME280;59614;51.012;-1.648;2023-06-10T01:11:36;100292.16;;;18.03;79.56
71109;BME280;59614;51.012;-1.648;2023-06-10T01:14:07;100300.78;;;18.08;79.23
71109;BME280;59614;51.012;-1.648;2023-06-10T01:16:34;100301.34;;;17.97;79.86
71109;BME280;59614;51.012;-1.648;2023-06-10T01:19:02;100306.38;;;18.03;79.75
71109;BME280;59614;51.012;-1.648;2023-06-10T01:21:28;100305.13;;;17.55;81.35
71109;BME280;59614;51.012;-1.648;2023-06-10T01:23:54;100301.94;;;17.66;81.17
71109;BME280;59614;51.012;-1.648;2023-06-10T01:26:22;100301.25;;;17.80;80.58
71109;BME280;59614;51.012;-1.648;2023-06-10T01:31:40;100298.91;;;17.91;79.80
71109;BME280;59614;51.012;-1.648;2023-06-10T01:34:10;100302.28;;;17.77;80.45
71109;BME280;59614;51.012;-1.648;2023-06-10T01:36:37;100299.34;;;17.64;81.17
71109;BME280;59614;51.012;-1.648;2023-06-10T01:39:04;100302.28;;;17.58;81.58
71109;BME280;59614;51.012;-1.648;2023-06-10T01:41:31;100300.06;;;17.29;82.73
71109;BME280;59614;51.012;-1.648;2023-06-10T01:43:57;100306.19;;;17.51;81.70
71109;BME280;59614;51.012;-1.648;2023-06-10T01:46:23;100303.59;;;17.11;83.61
71109;BME280;59614;51.012;-1.648;2023-06-10T01:48:48;100298.19;;;16.92;83.92
71109;BME280;59614;51.012;-1.648;2023-06-10T01:51:13;100299.31;;;17.07;84.49
71109;BME280;59614;51.012;-1.648;2023-06-10T01:53:39;100297.34;;;16.71;86.10
71109;BME280;59614;51.012;-1.648;2023-06-10T01:56:05;100306.59;;;17.03;84.53
71109;BME280;59614;51.012;-1.648;2023-06-10T01:58:30;100299.91;;;17.13;83.57
71109;BME280;59614;51.012;-1.648;2023-06-10T02:00:56;100300.19;;;16.87;85.04
71109;BME280;59614;51.012;-1.648;2023-06-10T02:03:21;100298.22;;;16.71;85.96
71109;BME280;59614;51.012;-1.648;2023-06-10T02:05:47;100300.75;;;16.74;86.08
71109;BME280;59614;51.012;-1.648;2023-06-10T02:08:12;100300.06;;;16.69;86.23
71109;BME280;59614;51.012;-1.648;2023-06-10T02:10:37;100307.81;;;16.55;86.02
71109;BME280;59614;51.012;-1.648;2023-06-10T02:13:03;100296.19;;;16.56;86.44
71109;BME280;59614;51.012;-1.648;2023-06-10T02:15:28;100305.88;;;16.79;85.24
71109;BME280;59614;51.012;-1.648;2023-06-10T02:17:54;100305.25;;;16.93;84.57
71109;BME280;59614;51.012;-1.648;2023-06-10T02:20:20;100306.31;;;16.68;85.86
71109;BME280;59614;51.012;-1.648;2023-06-10T02:22:46;100302.88;;;16.66;85.24
71109;BME280;59614;51.012;-1.648;2023-06-10T02:25:11;100295.66;;;16.68;85.14
71109;BME280;59614;51.012;-1.648;2023-06-10T02:27:37;100295.34;;;16.34;86.69
71109;BME280;59614;51.012;-1.648;2023-06-10T02:30:02;100295.28;;;16.57;85.62
71109;BME280;59614;51.012;-1.648;2023-06-10T02:32:28;100300.06;;;16.48;85.74
71109;BME280;59614;51.012;-1.648;2023-06-10T02:34:53;100300.41;;;16.61;85.35
71109;BME280;59614;51.012;-1.648;2023-06-10T02:37:19;100299.34;;;16.45;86.01
71109;BME280;59614;51.012;-1.648;2023-06-10T02:39:45;100295.47;;;16.31;86.33
71109;BME280;59614;51.012;-1.648;2023-06-10T02:42:11;100303.72;;;16.25;86.59
71109;BME280;59614;51.012;-1.648;2023-06-10T02:44:37;100305.41;;;15.83;89.65
71109;BME280;59614;51.012;-1.648;2023-06-10T02:47:03;100300.56;;;16.15;88.13
71109;BME280;59614;51.012;-1.648;2023-06-10T02:49:28;100304.06;;;16.17;87.36
71109;BME280;59614;51.012;-1.648;2023-06-10T02:51:54;100308.94;;;16.06;87.80
71109;BME280;59614;51.012;-1.648;2023-06-10T02:54:20;100306.34;;;16.04;88.15
71109;BME280;59614;51.012;-1.648;2023-06-10T02:56:45;100312.78;;;15.99;88.14
71109;BME280;59614;51.012;-1.648;2023-06-10T02:59:13;100310.31;;;15.94;88.78
71109;BME280;59614;51.012;-1.648;2023-06-10T03:01:39;100308.56;;;16.15;86.96
71109;BME280;59614;51.012;-1.648;2023-06-10T03:04:05;100305.56;;;16.02;88.04
71109;BME280;59614;51.012;-1.648;2023-06-10T03:06:31;100321.94;;;15.92;88.16
71109;BME280;59614;51.012;-1.648;2023-06-10T03:08:59;100321.84;;;15.95;87.52
71109;BME280;59614;51.012;-1.648;2023-06-10T03:11:25;100319.53;;;15.85;88.25
71109;BME280;59614;51.012;-1.648;2023-06-10T03:13:51;100307.22;;;16.05;86.96
71109;BME280;59614;51.012;-1.648;2023-06-10T03:16:17;100319.72;;;15.81;87.48
71109;BME280;59614;51.012;-1.648;2023-06-10T03:18:43;100316.22;;;16.02;86.46
71109;BME280;59614;51.012;-1.648;2023-06-10T03:21:09;100317.72;;;15.64;88.72
71109;BME280;59614;51.012;-1.648;2023-06-10T03:23:34;100312.41;;;15.40;89.48
71109;BME280;59614;51.012;-1.648;2023-06-10T03:26:00;100310.28;;;15.72;88.76
71109;BME280;59614;51.012;-1.648;2023-06-10T03:28:26;100304.97;;;15.72;88.59
71109;BME280;59614;51.012;-1.648;2023-06-10T03:30:51;100317.94;;;15.57;88.45
71109;BME280;59614;51.012;-1.648;2023-06-10T03:33:17;100311.56;;;15.62;88.79
71109;BME280;59614;51.012;-1.648;2023-06-10T03:35:42;100324.63;;;15.68;87.35
71109;BME280;59614;51.012;-1.648;2023-06-10T03:38:07;100323.88;;;15.64;88.43
71109;BME280;59614;51.012;-1.648;2023-06-10T03:40:33;100321.41;;;15.59;88.46
71109;BME280;59614;51.012;-1.648;2023-06-10T03:43:00;100321.25;;;15.40;89.12
71109;BME280;59614;51.012;-1.648;2023-06-10T03:45:25;100315.72;;;15.47;88.25
71109;BME280;59614;51.012;-1.648;2023-06-10T03:47:53;100315.44;;;15.31;89.67
71109;BME280;59614;51.012;-1.648;2023-06-10T03:50:19;100315.56;;;15.50;88.40
71109;BME280;59614;51.012;-1.648;2023-06-10T03:52:44;100311.31;;;15.46;88.39
71109;BME280;59614;51.012;-1.648;2023-06-10T03:55:11;100311.97;;;15.51;88.21
71109;BME280;59614;51.012;-1.648;2023-06-10T03:57:39;100310.78;;;15.12;90.27
71109;BME280;59614;51.012;-1.648;2023-06-10T04:00:05;100306.16;;;15.41;88.54
71109;BME280;59614;51.012;-1.648;2023-06-10T04:02:38;100308.59;;;15.23;88.94
71109;BME280;59614;51.012;-1.648;2023-06-10T04:05:07;100312.25;;;15.21;90.10
71109;BME280;59614;51.012;-1.648;2023-06-10T04:07:32;100301.50;;;15.00;89.69
71109;BME280;59614;51.012;-1.648;2023-06-10T04:09:59;100305.09;;;14.97;90.71
71109;BME280;59614;51.012;-1.648;2023-06-10T04:12:25;100313.22;;;15.18;89.53
71109;BME280;59614;51.012;-1.648;2023-06-10T04:14:50;100312.34;;;15.18;89.84
71109;BME280;59614;51.012;-1.648;2023-06-10T04:17:16;100313.81;;;15.26;88.80
71109;BME280;59614;51.012;-1.648;2023-06-10T04:19:42;100309.06;;;15.35;88.56
71109;BME280;59614;51.012;-1.648;2023-06-10T04:22:07;100312.41;;;15.16;89.88
71109;BME280;59614;51.012;-1.648;2023-06-10T04:24:32;100315.88;;;15.18;89.33
71109;BME280;59614;51.012;-1.648;2023-06-10T04:26:58;100318.38;;;14.97;90.00
71109;BME280;59614;51.012;-1.648;2023-06-10T04:29:23;100310.09;;;15.07;89.55
71109;BME280;59614;51.012;-1.648;2023-06-10T04:31:49;100320.22;;;15.21;88.97
71109;BME280;59614;51.012;-1.648;2023-06-10T04:34:14;100319.81;;;15.08;88.87
71109;BME280;59614;51.012;-1.648;2023-06-10T04:36:39;100326.38;;;15.21;89.32
71109;BME280;59614;51.012;-1.648;2023-06-10T04:39:05;100326.09;;;15.05;90.07
71109;BME280;59614;51.012;-1.648;2023-06-10T04:41:31;100325.59;;;15.19;88.55
71109;BME280;59614;51.012;-1.648;2023-06-10T04:43:56;100319.94;;;15.28;88.52
71109;BME280;59614;51.012;-1.648;2023-06-10T04:46:23;100319.00;;;15.06;88.40
71109;BME280;59614;51.012;-1.648;2023-06-10T04:48:48;100318.09;;;15.31;87.81
71109;BME280;59614;51.012;-1.648;2023-06-10T04:51:13;100318.94;;;15.07;89.50
71109;BME280;59614;51.012;-1.648;2023-06-10T04:53:39;100326.97;;;15.29;89.06
71109;BME280;59614;51.012;-1.648;2023-06-10T04:56:05;100318.59;;;15.17;88.21
71109;BME280;59614;51.012;-1.648;2023-06-10T04:58:30;100325.63;;;15.41;87.93
71109;BME280;59614;51.012;-1.648;2023-06-10T05:00:56;100317.28;;;15.03;89.23
71109;BME280;59614;51.012;-1.648;2023-06-10T05:03:21;100317.03;;;15.35;88.16
71109;BME280;59614;51.012;-1.648;2023-06-10T05:05:46;100309.94;;;15.57;86.71
71109;BME280;59614;51.012;-1.648;2023-06-10T05:08:12;100315.38;;;15.54;87.14
71109;BME280;59614;51.012;-1.648;2023-06-10T05:10:37;100314.59;;;15.74;86.24
71109;BME280;59614;51.012;-1.648;2023-06-10T05:13:03;100315.16;;;15.83;85.43
71109;BME280;59614;51.012;-1.648;2023-06-10T05:15:28;100314.38;;;15.81;85.16
71109;BME280;59614;51.012;-1.648;2023-06-10T05:17:56;100313.88;;;15.71;85.32
71109;BME280;59614;51.012;-1.648;2023-06-10T05:20:22;100307.25;;;15.59;87.17
71109;BME280;59614;51.012;-1.648;2023-06-10T05:22:47;100306.59;;;15.76;86.10
71109;BME280;59614;51.012;-1.648;2023-06-10T05:25:13;100308.47;;;15.50;86.28
71109;BME280;59614;51.012;-1.648;2023-06-10T05:27:38;100310.59;;;15.40;87.34
71109;BME280;59614;51.012;-1.648;2023-06-10T05:30:05;100310.66;;;15.63;85.93
71109;BME280;59614;51.012;-1.648;2023-06-10T05:32:32;100315.03;;;15.87;85.48
71109;BME280;59614;51.012;-1.648;2023-06-10T05:34:58;100321.44;;;15.82;85.77
71109;BME280;59614;51.012;-1.648;2023-06-10T05:37:25;100318.38;;;15.93;85.14
71109;BME280;59614;51.012;-1.648;2023-06-10T05:39:50;100316.13;;;16.04;84.54
71109;BME280;59614;51.012;-1.648;2023-06-10T05:42:16;100312.22;;;15.90;85.37
71109;BME280;59614;51.012;-1.648;2023-06-10T05:44:41;100323.72;;;16.13;83.74
71109;BME280;59614;51.012;-1.648;2023-06-10T05:47:07;100316.13;;;16.26;83.06
71109;BME280;59614;51.012;-1.648;2023-06-10T05:49:32;100320.63;;;16.24;83.18
71109;BME280;59614;51.012;-1.648;2023-06-10T05:51:58;100320.78;;;16.42;82.35
71109;BME280;59614;51.012;-1.648;2023-06-10T05:54:24;100324.41;;;16.18;83.90
71109;BME280;59614;51.012;-1.648;2023-06-10T05:56:50;100330.69;;;16.38;82.69
71109;BME280;59614;51.012;-1.648;2023-06-10T05:59:15;100328.47;;;16.27;83.17
71109;BME280;59614;51.012;-1.648;2023-06-10T06:01:41;100327.94;;;16.62;82.16
71109;BME280;59614;51.012;-1.648;2023-06-10T06:04:06;100341.78;;;16.70;81.77
71109;BME280;59614;51.012;-1.648;2023-06-10T06:06:32;100333.91;;;16.67;80.85
71109;BME280;59614;51.012;-1.648;2023-06-10T06:08:57;100335.72;;;16.66;81.24
71109;BME280;59614;51.012;-1.648;2023-06-10T06:11:22;100336.97;;;16.58;82.51
71109;BME280;59614;51.012;-1.648;2023-06-10T06:13:48;100336.63;;;16.86;80.17
71109;BME280;59614;51.012;-1.648;2023-06-10T06:16:13;100337.78;;;17.22;78.82
71109;BME280;59614;51.012;-1.648;2023-06-10T06:18:39;100346.53;;;17.44;78.49
71109;BME280;59614;51.012;-1.648;2023-06-10T06:21:04;100345.78;;;17.60;77.01
71109;BME280;59614;51.012;-1.648;2023-06-10T06:23:29;100345.97;;;17.17;78.35
71109;BME280;59614;51.012;-1.648;2023-06-10T06:25:55;100354.09;;;17.54;77.82
71109;BME280;59614;51.012;-1.648;2023-06-10T06:28:21;100341.00;;;17.28;78.62
71109;BME280;59614;51.012;-1.648;2023-06-10T06:30:47;100345.22;;;16.93;78.90
71109;BME280;59614;51.012;-1.648;2023-06-10T06:33:13;100344.56;;;17.29;78.73
71109;BME280;59614;51.012;-1.648;2023-06-10T06:35:38;100350.91;;;17.45;76.81
71109;BME280;59614;51.012;-1.648;2023-06-10T06:38:04;100354.41;;;17.27;78.22
71109;BME280;59614;51.012;-1.648;2023-06-10T06:40:29;100347.31;;;17.27;78.21
71109;BME280;59614;51.012;-1.648;2023-06-10T06:42:55;100347.38;;;17.45;78.31
71109;BME280;59614;51.012;-1.648;2023-06-10T06:45:20;100347.38;;;17.64;76.45
71109;BME280;59614;51.012;-1.648;2023-06-10T06:47:46;100345.00;;;17.77;77.13
71109;BME280;59614;51.012;-1.648;2023-06-10T06:50:11;100346.84;;;17.75;75.64
71109;BME280;59614;51.012;-1.648;2023-06-10T06:52:37;100351.56;;;17.89;75.84
71109;BME280;59614;51.012;-1.648;2023-06-10T06:55:02;100355.66;;;17.96;75.16
71109;BME280;59614;51.012;-1.648;2023-06-10T06:57:28;100370.34;;;18.24;74.99
71109;BME280;59614;51.012;-1.648;2023-06-10T06:59:53;100350.69;;;18.62;73.33
71109;BME280;59614;51.012;-1.648;2023-06-10T07:02:18;100353.59;;;18.57;73.52
71109;BME280;59614;51.012;-1.648;2023-06-10T07:04:44;100367.38;;;19.18;71.51
71109;BME280;59614;51.012;-1.648;2023-06-10T07:07:11;100368.31;;;19.17;70.47
71109;BME280;59614;51.012;-1.648;2023-06-10T07:09:37;100359.72;;;18.94;70.81
71109;BME280;59614;51.012;-1.648;2023-06-10T07:12:03;100358.41;;;19.19;70.50
71109;BME280;59614;51.012;-1.648;2023-06-10T07:14:28;100360.03;;;19.55;69.74
71109;BME280;59614;51.012;-1.648;2023-06-10T07:16:54;100367.84;;;19.92;67.90
71109;BME280;59614;51.012;-1.648;2023-06-10T07:19:19;100359.75;;;20.40;66.44
71109;BME280;59614;51.012;-1.648;2023-06-10T07:21:44;100357.63;;;21.06;65.21
71109;BME280;59614;51.012;-1.648;2023-06-10T07:24:10;100372.63;;;20.03;68.80
71109;BME280;59614;51.012;-1.648;2023-06-10T07:26:35;100374.00;;;21.02;66.26
71109;BME280;59614;51.012;-1.648;2023-06-10T07:29:01;100372.09;;;21.04;64.49
71109;BME280;59614;51.012;-1.648;2023-06-10T07:31:26;100368.19;;;20.64;64.64
71109;BME280;59614;51.012;-1.648;2023-06-10T07:33:51;100371.84;;;21.23;65.08
71109;BME280;59614;51.012;-1.648;2023-06-10T07:36:17;100362.84;;;21.38;63.17
71109;BME280;59614;51.012;-1.648;2023-06-10T07:38:42;100358.81;;;21.60;62.45
71109;BME280;59614;51.012;-1.648;2023-06-10T07:41:08;100369.03;;;21.82;63.04
71109;BME280;59614;51.012;-1.648;2023-06-10T07:43:34;100367.03;;;22.13;62.83
71109;BME280;59614;51.012;-1.648;2023-06-10T07:45:59;100359.16;;;22.65;59.65
71109;BME280;59614;51.012;-1.648;2023-06-10T07:48:25;100353.97;;;22.49;60.35
71109;BME280;59614;51.012;-1.648;2023-06-10T07:50:51;100358.84;;;23.08;59.66
71109;BME280;59614;51.012;-1.648;2023-06-10T07:53:17;100343.97;;;22.77;59.12
71109;BME280;59614;51.012;-1.648;2023-06-10T07:55:43;100341.47;;;22.48;59.81
71109;BME280;59614;51.012;-1.648;2023-06-10T07:58:09;100342.81;;;22.13;61.15
71109;BME280;59614;51.012;-1.648;2023-06-10T08:00:35;100344.38;;;22.45;59.91
71109;BME280;59614;51.012;-1.648;2023-06-10T08:03:00;100346.38;;;23.20;58.82
71109;BME280;59614;51.012;-1.648;2023-06-10T08:05:26;100350.25;;;23.16;58.26
71109;BME280;59614;51.012;-1.648;2023-06-10T08:07:51;100350.19;;;22.64;59.58
71109;BME280;59614;51.012;-1.648;2023-06-10T08:10:17;100349.78;;;23.61;58.62
71109;BME280;59614;51.012;-1.648;2023-06-10T08:12:42;100347.84;;;24.25;56.07
71109;BME280;59614;51.012;-1.648;2023-06-10T08:15:08;100346.91;;;24.37;55.50
71109;BME280;59614;51.012;-1.648;2023-06-10T08:17:33;100344.75;;;24.42;55.50
71109;BME280;59614;51.012;-1.648;2023-06-10T08:20:00;100355.63;;;23.42;56.54
71109;BME280;59614;51.012;-1.648;2023-06-10T08:22:26;100362.31;;;23.10;58.49
71109;BME280;59614;51.012;-1.648;2023-06-10T08:24:51;100360.28;;;23.90;56.92
71109;BME280;59614;51.012;-1.648;2023-06-10T08:27:17;100366.09;;;23.08;59.76
71109;BME280;59614;51.012;-1.648;2023-06-10T08:29:42;100367.75;;;22.57;60.07
71109;BME280;59614;51.012;-1.648;2023-06-10T08:32:08;100363.59;;;23.31;59.61
71109;BME280;59614;51.012;-1.648;2023-06-10T08:34:34;100366.19;;;23.58;57.53
71109;BME280;59614;51.012;-1.648;2023-06-10T08:37:00;100372.28;;;23.73;58.20
71109;BME280;59614;51.012;-1.648;2023-06-10T08:39:26;100367.75;;;24.59;57.61
71109;BME280;59614;51.012;-1.648;2023-06-10T08:42:11;100371.03;;;24.03;57.73
71109;BME280;59614;51.012;-1.648;2023-06-10T08:44:40;100363.72;;;24.65;54.23
71109;BME280;59614;51.012;-1.648;2023-06-10T08:47:12;100371.25;;;24.00;57.48
71109;BME280;59614;51.012;-1.648;2023-06-10T08:49:43;100364.13;;;24.83;54.37
71109;BME280;59614;51.012;-1.648;2023-06-10T08:52:13;100361.84;;;25.12;53.85
71109;BME280;59614;51.012;-1.648;2023-06-10T08:54:42;100367.00;;;25.04;54.99
71109;BME280;59614;51.012;-1.648;2023-06-10T08:57:09;100369.75;;;25.72;52.41
71109;BME280;59614;51.012;-1.648;2023-06-10T08:59:35;100364.66;;;25.00;53.46
71109;BME280;59614;51.012;-1.648;2023-06-10T09:02:02;100374.34;;;25.02;54.42
71109;BME280;59614;51.012;-1.648;2023-06-10T09:04:29;100363.28;;;24.82;55.83
71109;BME280;59614;51.012;-1.648;2023-06-10T09:06:55;100372.13;;;24.85;54.38
71109;BME280;59614;51.012;-1.648;2023-06-10T09:09:22;100367.00;;;24.33;57.24
71109;BME280;59614;51.012;-1.648;2023-06-10T09:11:48;100373.25;;;23.72;58.19
71109;BME280;59614;51.012;-1.648;2023-06-10T09:14:13;100369.44;;;24.60;55.25
71109;BME280;59614;51.012;-1.648;2023-06-10T09:16:39;100365.00;;;24.83;55.86
71109;BME280;59614;51.012;-1.648;2023-06-10T09:19:06;100370.72;;;25.71;52.94
71109;BME280;59614;51.012;-1.648;2023-06-10T09:21:34;100366.75;;;25.98;53.03
71109;BME280;59614;51.012;-1.648;2023-06-10T09:23:59;100364.47;;;25.71;52.75
71109;BME280;59614;51.012;-1.648;2023-06-10T09:26:29;100369.63;;;25.51;53.13
71109;BME280;59614;51.012;-1.648;2023-06-10T09:29:04;100366.81;;;25.53;53.21
71109;BME280;59614;51.012;-1.648;2023-06-10T09:31:30;100369.16;;;25.57;54.81
71109;BME280;59614;51.012;-1.648;2023-06-10T09:34:05;100366.78;;;25.30;54.83
71109;BME280;59614;51.012;-1.648;2023-06-10T09:36:32;100363.88;;;26.23;54.08
71109;BME280;59614;51.012;-1.648;2023-06-10T09:38:58;100362.06;;;26.44;54.73
71109;BME280;59614;51.012;-1.648;2023-06-10T09:41:34;100372.06;;;25.20;56.10
71109;BME280;59614;51.012;-1.648;2023-06-10T09:44:01;100366.22;;;26.04;54.90
71109;BME280;59614;51.012;-1.648;2023-06-10T09:46:31;100362.47;;;26.40;53.55
71109;BME280;59614;51.012;-1.648;2023-06-10T09:48:59;100357.66;;;25.99;54.69
71109;BME280;59614;51.012;-1.648;2023-06-10T09:51:25;100363.50;;;26.27;52.25
71109;BME280;59614;51.012;-1.648;2023-06-10T09:53:51;100359.09;;;26.15;52.45
71109;BME280;59614;51.012;-1.648;2023-06-10T09:56:17;100361.22;;;26.44;53.78
71109;BME280;59614;51.012;-1.648;2023-06-10T09:58:44;100360.84;;;25.93;55.58
71109;BME280;59614;51.012;-1.648;2023-06-10T10:01:13;100358.59;;;25.54;55.07
71109;BME280;59614;51.012;-1.648;2023-06-10T10:03:46;100359.06;;;25.71;54.28
71109;BME280;59614;51.012;-1.648;2023-06-10T10:06:12;100353.41;;;26.29;54.45
71109;BME280;59614;51.012;-1.648;2023-06-10T10:08:39;100355.75;;;26.55;56.55
71109;BME280;59614;51.012;-1.648;2023-06-10T10:11:04;100347.75;;;26.32;57.23
71109;BME280;59614;51.012;-1.648;2023-06-10T10:13:33;100352.47;;;26.19;55.21
71109;BME280;59614;51.012;-1.648;2023-06-10T10:16:08;100348.34;;;26.57;55.37
71109;BME280;59614;51.012;-1.648;2023-06-10T10:18:39;100359.28;;;26.88;53.80
71109;BME280;59614;51.012;-1.648;2023-06-10T10:21:08;100360.09;;;26.79;55.97
71109;BME280;59614;51.012;-1.648;2023-06-10T10:23:41;100360.91;;;27.53;53.60
71109;BME280;59614;51.012;-1.648;2023-06-10T10:26:11;100366.97;;;27.76;50.29
71109;BME280;59614;51.012;-1.648;2023-06-10T10:28:41;100363.78;;;27.30;52.79
71109;BME280;59614;51.012;-1.648;2023-06-10T10:31:09;100363.28;;;27.15;51.20
71109;BME280;59614;51.012;-1.648;2023-06-10T10:36:09;100357.34;;;28.13;50.58
71109;BME280;59614;51.012;-1.648;2023-06-10T10:38:35;100352.34;;;28.67;48.44
71109;BME280;59614;51.012;-1.648;2023-06-10T10:41:01;100350.63;;;28.95;50.53
71109;BME280;59614;51.012;-1.648;2023-06-10T10:43:30;100342.91;;;28.91;47.87
71109;BME280;59614;51.012;-1.648;2023-06-10T10:46:08;100343.66;;;28.83;49.03
71109;BME280;59614;51.012;-1.648;2023-06-10T10:48:38;100333.22;;;28.59;49.61
71109;BME280;59614;51.012;-1.648;2023-06-10T10:51:03;100331.78;;;29.59;48.09
71109;BME280;59614;51.012;-1.648;2023-06-10T10:53:29;100339.81;;;29.61;48.20
71109;BME280;59614;51.012;-1.648;2023-06-10T10:56:05;100331.97;;;29.20;48.83
71109;BME280;59614;51.012;-1.648;2023-06-10T10:58:32;100335.22;;;28.76;47.55
71109;BME280;59614;51.012;-1.648;2023-06-10T11:00:57;100341.16;;;29.75;46.96
71109;BME280;59614;51.012;-1.648;2023-06-10T11:03:28;100350.22;;;29.28;46.21
71109;BME280;59614;51.012;-1.648;2023-06-10T11:05:56;100338.44;;;29.47;47.07
71109;BME280;59614;51.012;-1.648;2023-06-10T11:10:54;100350.53;;;29.25;47.73
71109;BME280;59614;51.012;-1.648;2023-06-10T11:13:21;100347.19;;;29.69;45.62
71109;BME280;59614;51.012;-1.648;2023-06-10T11:15:50;100349.91;;;29.31;46.52
71109;BME280;59614;51.012;-1.648;2023-06-10T11:18:24;100348.78;;;29.89;45.68
71109;BME280;59614;51.012;-1.648;2023-06-10T11:31:23;100343.63;;;31.56;44.49
71109;BME280;59614;51.012;-1.648;2023-06-10T11:34:02;100338.25;;;31.72;43.80
71109;BME280;59614;51.012;-1.648;2023-06-10T11:36:29;100336.91;;;30.81;44.90
71109;BME280;59614;51.012;-1.648;2023-06-10T11:39:00;100338.50;;;32.04;44.12
71109;BME280;59614;51.012;-1.648;2023-06-10T11:41:26;100345.16;;;31.50;42.99
71109;BME280;59614;51.012;-1.648;2023-06-10T11:43:53;100331.97;;;30.85;44.08
71109;BME280;59614;51.012;-1.648;2023-06-10T11:46:19;100334.69;;;31.88;41.48
71109;BME280;59614;51.012;-1.648;2023-06-10T11:48:51;100335.13;;;31.24;41.51
71109;BME280;59614;51.012;-1.648;2023-06-10T11:51:17;100339.16;;;31.12;43.40
71109;BME280;59614;51.012;-1.648;2023-06-10T11:53:47;100340.94;;;31.03;45.85
71109;BME280;59614;51.012;-1.648;2023-06-10T11:56:13;100324.31;;;30.62;44.89
71109;BME280;59614;51.012;-1.648;2023-06-10T11:58:43;100345.88;;;31.26;45.28
71109;BME280;59614;51.012;-1.648;2023-06-10T12:01:09;100345.63;;;31.88;43.58
71109;BME280;59614;51.012;-1.648;2023-06-10T12:03:37;100334.78;;;32.96;42.09
71109;BME280;59614;51.012;-1.648;2023-06-10T12:06:05;100341.88;;;31.89;43.41
71109;BME280;59614;51.012;-1.648;2023-06-10T12:08:31;100328.66;;;32.86;41.87
71109;BME280;59614;51.012;-1.648;2023-06-10T12:10:57;100326.41;;;32.23;41.19
71109;BME280;59614;51.012;-1.648;2023-06-10T12:13:25;100338.88;;;32.34;42.53
71109;BME280;59614;51.012;-1.648;2023-06-10T12:15:51;100336.53;;;33.29;41.52
71109;BME280;59614;51.012;-1.648;2023-06-10T12:18:21;100347.44;;;32.39;40.89
71109;BME280;59614;51.012;-1.648;2023-06-10T12:20:47;100336.47;;;33.05;38.73
71109;BME280;59614;51.012;-1.648;2023-06-10T12:23:14;100335.63;;;33.53;39.61
71109;BME280;59614;51.012;-1.648;2023-06-10T12:25:49;100329.69;;;33.41;40.72
71109;BME280;59614;51.012;-1.648;2023-06-10T12:28:16;100331.22;;;34.30;39.07
71109;BME280;59614;51.012;-1.648;2023-06-10T12:30:42;100333.59;;;33.47;38.17
71109;BME280;59614;51.012;-1.648;2023-06-10T12:33:16;100323.72;;;32.81;40.26
71109;BME280;59614;51.012;-1.648;2023-06-10T12:35:52;100328.81;;;32.43;40.75
71109;BME280;59614;51.012;-1.648;2023-06-10T12:38:22;100326.88;;;33.09;41.39
71109;BME280;59614;51.012;-1.648;2023-06-10T12:40:47;100325.00;;;34.98;37.65
71109;BME280;59614;51.012;-1.648;2023-06-10T12:43:13;100322.00;;;35.22;36.45
71109;BME280;59614;51.012;-1.648;2023-06-10T12:45:44;100321.84;;;33.78;37.27
71109;BME280;59614;51.012;-1.648;2023-06-10T12:48:22;100320.75;;;33.55;36.85
71109;BME280;59614;51.012;-1.648;2023-06-10T12:50:56;100317.50;;;33.04;38.62
71109;BME280;59614;51.012;-1.648;2023-06-10T12:53:22;100312.78;;;32.81;39.54
71109;BME280;59614;51.012;-1.648;2023-06-10T12:55:49;100313.19;;;33.18;39.52
71109;BME280;59614;51.012;-1.648;2023-06-10T12:58:14;100316.63;;;34.38;36.48